<?xml version="1.0" encoding="UTF-8" standalone="no" ?>
<gpx xmlns="http://www.topografix.com/GPX/1/1" xmlns:xsi="http://www.w3.org/2001/XMLSchema-instance" xsi:schemaLocation="http://www.topografix.com/GPX/1/1 http://www.topografix.com/GPX/1/1/gpx.xsd" version="1.1" creator="VisuGPX - https://www.visugpx.com">
  <metadata>
    <name>Nez de boeuf 2012 - 25km</name>
    <desc><![CDATA[Rando Nez de boeuf
Eviter par temps humide]]></desc>
  </metadata>
  <trk>
    <name><![CDATA[20120701 - Nez de boeuf 25km]]></name>
    <trkseg>
      <trkpt lat="48.3826" lon="2.37827">
        <ele>28.993</ele>
        <time>2012-07-01T07:09:19Z</time>
      </trkpt>
      <trkpt lat="48.38274" lon="2.37825">
        <ele>44.787</ele>
        <time>2012-07-01T07:09:35Z</time>
      </trkpt>
      <trkpt lat="48.3831" lon="2.37823">
        <ele>64.633</ele>
        <time>2012-07-01T07:12:22Z</time>
      </trkpt>
      <trkpt lat="48.3831" lon="2.37823">
        <ele>64.587</ele>
        <time>2012-07-01T07:12:29Z</time>
      </trkpt>
      <trkpt lat="48.3831" lon="2.37823">
        <ele>64.587</ele>
        <time>2012-07-01T07:12:29Z</time>
      </trkpt>
      <trkpt lat="48.3831" lon="2.37823">
        <ele>68.025</ele>
        <time>2012-07-01T07:13:02Z</time>
      </trkpt>
      <trkpt lat="48.38312" lon="2.37823">
        <ele>67.839</ele>
        <time>2012-07-01T07:16:42Z</time>
      </trkpt>
      <trkpt lat="48.38312" lon="2.37822">
        <ele>67.509</ele>
        <time>2012-07-01T07:16:46Z</time>
      </trkpt>
      <trkpt lat="48.3831" lon="2.37822">
        <ele>67.269</ele>
        <time>2012-07-01T07:16:48Z</time>
      </trkpt>
      <trkpt lat="48.38304" lon="2.37813">
        <ele>66.125</ele>
        <time>2012-07-01T07:16:54Z</time>
      </trkpt>
      <trkpt lat="48.38293" lon="2.37809">
        <ele>65.256</ele>
        <time>2012-07-01T07:17:00Z</time>
      </trkpt>
      <trkpt lat="48.38279" lon="2.37845">
        <ele>64.569</ele>
        <time>2012-07-01T07:17:11Z</time>
      </trkpt>
      <trkpt lat="48.38274" lon="2.3785">
        <ele>64.583</ele>
        <time>2012-07-01T07:17:13Z</time>
      </trkpt>
      <trkpt lat="48.3826" lon="2.3785">
        <ele>64.777</ele>
        <time>2012-07-01T07:17:19Z</time>
      </trkpt>
      <trkpt lat="48.38208" lon="2.37838">
        <ele>64.212</ele>
        <time>2012-07-01T07:17:36Z</time>
      </trkpt>
      <trkpt lat="48.38157" lon="2.37808">
        <ele>63.726</ele>
        <time>2012-07-01T07:17:54Z</time>
      </trkpt>
      <trkpt lat="48.38156" lon="2.37805">
        <ele>64.027</ele>
        <time>2012-07-01T07:17:59Z</time>
      </trkpt>
      <trkpt lat="48.38141" lon="2.37704">
        <ele>63.899</ele>
        <time>2012-07-01T07:18:37Z</time>
      </trkpt>
      <trkpt lat="48.38138" lon="2.37689">
        <ele>64.114</ele>
        <time>2012-07-01T07:18:43Z</time>
      </trkpt>
      <trkpt lat="48.38141" lon="2.37683">
        <ele>64.505</ele>
        <time>2012-07-01T07:18:51Z</time>
      </trkpt>
      <trkpt lat="48.38171" lon="2.37681">
        <ele>63.189</ele>
        <time>2012-07-01T07:19:04Z</time>
      </trkpt>
      <trkpt lat="48.38205" lon="2.37678">
        <ele>61.63</ele>
        <time>2012-07-01T07:19:13Z</time>
      </trkpt>
      <trkpt lat="48.38223" lon="2.37672">
        <ele>61.486</ele>
        <time>2012-07-01T07:19:17Z</time>
      </trkpt>
      <trkpt lat="48.38226" lon="2.37619">
        <ele>60.842</ele>
        <time>2012-07-01T07:19:27Z</time>
      </trkpt>
      <trkpt lat="48.38226" lon="2.3751">
        <ele>62.348</ele>
        <time>2012-07-01T07:19:49Z</time>
      </trkpt>
      <trkpt lat="48.38225" lon="2.37392">
        <ele>66.108</ele>
        <time>2012-07-01T07:20:15Z</time>
      </trkpt>
      <trkpt lat="48.38205" lon="2.37316">
        <ele>69.069</ele>
        <time>2012-07-01T07:20:34Z</time>
      </trkpt>
      <trkpt lat="48.38181" lon="2.37241">
        <ele>69.183</ele>
        <time>2012-07-01T07:20:51Z</time>
      </trkpt>
      <trkpt lat="48.38179" lon="2.37161">
        <ele>68.883</ele>
        <time>2012-07-01T07:21:04Z</time>
      </trkpt>
      <trkpt lat="48.38162" lon="2.37087">
        <ele>69.195</ele>
        <time>2012-07-01T07:21:19Z</time>
      </trkpt>
      <trkpt lat="48.38115" lon="2.37023">
        <ele>70.884</ele>
        <time>2012-07-01T07:21:36Z</time>
      </trkpt>
      <trkpt lat="48.38054" lon="2.36973">
        <ele>72.887</ele>
        <time>2012-07-01T07:21:54Z</time>
      </trkpt>
      <trkpt lat="48.38017" lon="2.36938">
        <ele>73.445</ele>
        <time>2012-07-01T07:22:08Z</time>
      </trkpt>
      <trkpt lat="48.37955" lon="2.36875">
        <ele>76.757</ele>
        <time>2012-07-01T07:22:30Z</time>
      </trkpt>
      <trkpt lat="48.37916" lon="2.36775">
        <ele>77.421</ele>
        <time>2012-07-01T07:22:55Z</time>
      </trkpt>
      <trkpt lat="48.37899" lon="2.36686">
        <ele>77.46</ele>
        <time>2012-07-01T07:23:15Z</time>
      </trkpt>
      <trkpt lat="48.37875" lon="2.36608">
        <ele>84.197</ele>
        <time>2012-07-01T07:23:34Z</time>
      </trkpt>
      <trkpt lat="48.37841" lon="2.36546">
        <ele>86.146</ele>
        <time>2012-07-01T07:23:54Z</time>
      </trkpt>
      <trkpt lat="48.37815" lon="2.36486">
        <ele>88.087</ele>
        <time>2012-07-01T07:24:14Z</time>
      </trkpt>
      <trkpt lat="48.378" lon="2.36433">
        <ele>92.036</ele>
        <time>2012-07-01T07:24:31Z</time>
      </trkpt>
      <trkpt lat="48.37795" lon="2.36366">
        <ele>93.981</ele>
        <time>2012-07-01T07:24:53Z</time>
      </trkpt>
      <trkpt lat="48.37779" lon="2.36327">
        <ele>96.238</ele>
        <time>2012-07-01T07:25:08Z</time>
      </trkpt>
      <trkpt lat="48.37758" lon="2.3629">
        <ele>96.977</ele>
        <time>2012-07-01T07:25:26Z</time>
      </trkpt>
      <trkpt lat="48.37737" lon="2.3625">
        <ele>100.064</ele>
        <time>2012-07-01T07:25:48Z</time>
      </trkpt>
      <trkpt lat="48.37708" lon="2.36188">
        <ele>103.483</ele>
        <time>2012-07-01T07:26:14Z</time>
      </trkpt>
      <trkpt lat="48.37708" lon="2.36185">
        <ele>107.294</ele>
        <time>2012-07-01T07:26:33Z</time>
      </trkpt>
      <trkpt lat="48.37708" lon="2.36183">
        <ele>109.781</ele>
        <time>2012-07-01T07:26:49Z</time>
      </trkpt>
      <trkpt lat="48.37708" lon="2.36183">
        <ele>111.022</ele>
        <time>2012-07-01T07:27:17Z</time>
      </trkpt>
      <trkpt lat="48.37698" lon="2.36178">
        <ele>111.152</ele>
        <time>2012-07-01T07:27:23Z</time>
      </trkpt>
      <trkpt lat="48.37652" lon="2.36143">
        <ele>115.581</ele>
        <time>2012-07-01T07:27:44Z</time>
      </trkpt>
      <trkpt lat="48.3762" lon="2.36121">
        <ele>116.729</ele>
        <time>2012-07-01T07:27:59Z</time>
      </trkpt>
      <trkpt lat="48.37564" lon="2.36085">
        <ele>118.938</ele>
        <time>2012-07-01T07:28:21Z</time>
      </trkpt>
      <trkpt lat="48.37506" lon="2.36046">
        <ele>120.345</ele>
        <time>2012-07-01T07:28:43Z</time>
      </trkpt>
      <trkpt lat="48.37436" lon="2.36">
        <ele>120.816</ele>
        <time>2012-07-01T07:29:07Z</time>
      </trkpt>
      <trkpt lat="48.37419" lon="2.3599">
        <ele>121.387</ele>
        <time>2012-07-01T07:29:13Z</time>
      </trkpt>
      <trkpt lat="48.37415" lon="2.36001">
        <ele>121.212</ele>
        <time>2012-07-01T07:29:17Z</time>
      </trkpt>
      <trkpt lat="48.37416" lon="2.36079">
        <ele>121.04</ele>
        <time>2012-07-01T07:29:33Z</time>
      </trkpt>
      <trkpt lat="48.37414" lon="2.36093">
        <ele>121.026</ele>
        <time>2012-07-01T07:29:35Z</time>
      </trkpt>
      <trkpt lat="48.37411" lon="2.36195">
        <ele>122.023</ele>
        <time>2012-07-01T07:29:52Z</time>
      </trkpt>
      <trkpt lat="48.37408" lon="2.36299">
        <ele>122.261</ele>
        <time>2012-07-01T07:30:11Z</time>
      </trkpt>
      <trkpt lat="48.37404" lon="2.36418">
        <ele>122.659</ele>
        <time>2012-07-01T07:30:33Z</time>
      </trkpt>
      <trkpt lat="48.37399" lon="2.36569">
        <ele>122.358</ele>
        <time>2012-07-01T07:31:01Z</time>
      </trkpt>
      <trkpt lat="48.37396" lon="2.36711">
        <ele>121.937</ele>
        <time>2012-07-01T07:31:26Z</time>
      </trkpt>
      <trkpt lat="48.37393" lon="2.36835">
        <ele>122.787</ele>
        <time>2012-07-01T07:31:47Z</time>
      </trkpt>
      <trkpt lat="48.37388" lon="2.36988">
        <ele>124.357</ele>
        <time>2012-07-01T07:32:11Z</time>
      </trkpt>
      <trkpt lat="48.3738" lon="2.37152">
        <ele>123.221</ele>
        <time>2012-07-01T07:32:33Z</time>
      </trkpt>
      <trkpt lat="48.37366" lon="2.37289">
        <ele>119.654</ele>
        <time>2012-07-01T07:32:51Z</time>
      </trkpt>
      <trkpt lat="48.37362" lon="2.37317">
        <ele>118.549</ele>
        <time>2012-07-01T07:32:59Z</time>
      </trkpt>
      <trkpt lat="48.37332" lon="2.37364">
        <ele>114.871</ele>
        <time>2012-07-01T07:33:11Z</time>
      </trkpt>
      <trkpt lat="48.37317" lon="2.3742">
        <ele>111.657</ele>
        <time>2012-07-01T07:33:24Z</time>
      </trkpt>
      <trkpt lat="48.37312" lon="2.37478">
        <ele>108.49</ele>
        <time>2012-07-01T07:33:38Z</time>
      </trkpt>
      <trkpt lat="48.37314" lon="2.37539">
        <ele>107.723</ele>
        <time>2012-07-01T07:33:56Z</time>
      </trkpt>
      <trkpt lat="48.37335" lon="2.37565">
        <ele>106.817</ele>
        <time>2012-07-01T07:34:06Z</time>
      </trkpt>
      <trkpt lat="48.37343" lon="2.37598">
        <ele>106.981</ele>
        <time>2012-07-01T07:34:12Z</time>
      </trkpt>
      <trkpt lat="48.37337" lon="2.37641">
        <ele>105.825</ele>
        <time>2012-07-01T07:34:18Z</time>
      </trkpt>
      <trkpt lat="48.37336" lon="2.37669">
        <ele>105.705</ele>
        <time>2012-07-01T07:34:21Z</time>
      </trkpt>
      <trkpt lat="48.3734" lon="2.37708">
        <ele>103.91</ele>
        <time>2012-07-01T07:34:24Z</time>
      </trkpt>
      <trkpt lat="48.37343" lon="2.37734">
        <ele>101.249</ele>
        <time>2012-07-01T07:34:26Z</time>
      </trkpt>
      <trkpt lat="48.37363" lon="2.37821">
        <ele>91.914</ele>
        <time>2012-07-01T07:34:35Z</time>
      </trkpt>
      <trkpt lat="48.37367" lon="2.37826">
        <ele>89.6</ele>
        <time>2012-07-01T07:34:40Z</time>
      </trkpt>
      <trkpt lat="48.37394" lon="2.37833">
        <ele>84.386</ele>
        <time>2012-07-01T07:34:50Z</time>
      </trkpt>
      <trkpt lat="48.37463" lon="2.3782">
        <ele>79.045</ele>
        <time>2012-07-01T07:35:08Z</time>
      </trkpt>
      <trkpt lat="48.37504" lon="2.37812">
        <ele>75.696</ele>
        <time>2012-07-01T07:35:19Z</time>
      </trkpt>
      <trkpt lat="48.37526" lon="2.37823">
        <ele>74.023</ele>
        <time>2012-07-01T07:35:25Z</time>
      </trkpt>
      <trkpt lat="48.37534" lon="2.3784">
        <ele>72.802</ele>
        <time>2012-07-01T07:35:28Z</time>
      </trkpt>
      <trkpt lat="48.37021" lon="2.38535">
        <ele>87.036</ele>
        <time>2012-07-01T07:39:00Z</time>
      </trkpt>
      <trkpt lat="48.37024" lon="2.38652">
        <ele>62.898</ele>
        <time>2012-07-01T07:39:09Z</time>
      </trkpt>
      <trkpt lat="48.37037" lon="2.3866">
        <ele>65.052</ele>
        <time>2012-07-01T07:39:13Z</time>
      </trkpt>
      <trkpt lat="48.37125" lon="2.38635">
        <ele>64.258</ele>
        <time>2012-07-01T07:39:31Z</time>
      </trkpt>
      <trkpt lat="48.37136" lon="2.38633">
        <ele>64.223</ele>
        <time>2012-07-01T07:39:33Z</time>
      </trkpt>
      <trkpt lat="48.37165" lon="2.38643">
        <ele>63.664</ele>
        <time>2012-07-01T07:39:39Z</time>
      </trkpt>
      <trkpt lat="48.37229" lon="2.38714">
        <ele>63.224</ele>
        <time>2012-07-01T07:39:55Z</time>
      </trkpt>
      <trkpt lat="48.37243" lon="2.38731">
        <ele>63.141</ele>
        <time>2012-07-01T07:39:59Z</time>
      </trkpt>
      <trkpt lat="48.37253" lon="2.38746">
        <ele>62.608</ele>
        <time>2012-07-01T07:40:02Z</time>
      </trkpt>
      <trkpt lat="48.3727" lon="2.38756">
        <ele>61.61</ele>
        <time>2012-07-01T07:40:06Z</time>
      </trkpt>
      <trkpt lat="48.37363" lon="2.38819">
        <ele>62.906</ele>
        <time>2012-07-01T07:40:28Z</time>
      </trkpt>
      <trkpt lat="48.3745" lon="2.38874">
        <ele>62.306</ele>
        <time>2012-07-01T07:40:50Z</time>
      </trkpt>
      <trkpt lat="48.37466" lon="2.38883">
        <ele>62.146</ele>
        <time>2012-07-01T07:40:54Z</time>
      </trkpt>
      <trkpt lat="48.37457" lon="2.38958">
        <ele>63.716</ele>
        <time>2012-07-01T07:41:11Z</time>
      </trkpt>
      <trkpt lat="48.3745" lon="2.39002">
        <ele>65.415</ele>
        <time>2012-07-01T07:41:22Z</time>
      </trkpt>
      <trkpt lat="48.37448" lon="2.39017">
        <ele>66.149</ele>
        <time>2012-07-01T07:41:26Z</time>
      </trkpt>
      <trkpt lat="48.37478" lon="2.39049">
        <ele>65.051</ele>
        <time>2012-07-01T07:41:38Z</time>
      </trkpt>
      <trkpt lat="48.37506" lon="2.39097">
        <ele>66.972</ele>
        <time>2012-07-01T07:41:50Z</time>
      </trkpt>
      <trkpt lat="48.37547" lon="2.39176">
        <ele>69.466</ele>
        <time>2012-07-01T07:42:07Z</time>
      </trkpt>
      <trkpt lat="48.37568" lon="2.39197">
        <ele>69.663</ele>
        <time>2012-07-01T07:42:13Z</time>
      </trkpt>
      <trkpt lat="48.37616" lon="2.39268">
        <ele>69.921</ele>
        <time>2012-07-01T07:42:29Z</time>
      </trkpt>
      <trkpt lat="48.37641" lon="2.39355">
        <ele>71.512</ele>
        <time>2012-07-01T07:42:46Z</time>
      </trkpt>
      <trkpt lat="48.37665" lon="2.39419">
        <ele>71.942</ele>
        <time>2012-07-01T07:43:01Z</time>
      </trkpt>
      <trkpt lat="48.37686" lon="2.39462">
        <ele>73.675</ele>
        <time>2012-07-01T07:43:15Z</time>
      </trkpt>
      <trkpt lat="48.37719" lon="2.39533">
        <ele>75.904</ele>
        <time>2012-07-01T07:43:35Z</time>
      </trkpt>
      <trkpt lat="48.37729" lon="2.39556">
        <ele>76.519</ele>
        <time>2012-07-01T07:43:43Z</time>
      </trkpt>
      <trkpt lat="48.37744" lon="2.39584">
        <ele>78.534</ele>
        <time>2012-07-01T07:43:54Z</time>
      </trkpt>
      <trkpt lat="48.3776" lon="2.39632">
        <ele>80.771</ele>
        <time>2012-07-01T07:44:08Z</time>
      </trkpt>
      <trkpt lat="48.37785" lon="2.3969">
        <ele>84.152</ele>
        <time>2012-07-01T07:44:24Z</time>
      </trkpt>
      <trkpt lat="48.37783" lon="2.39693">
        <ele>84.077</ele>
        <time>2012-07-01T07:44:27Z</time>
      </trkpt>
      <trkpt lat="48.37781" lon="2.39692">
        <ele>83.843</ele>
        <time>2012-07-01T07:44:29Z</time>
      </trkpt>
      <trkpt lat="48.37779" lon="2.3969">
        <ele>85.191</ele>
        <time>2012-07-01T07:44:42Z</time>
      </trkpt>
      <trkpt lat="48.3778" lon="2.39689">
        <ele>86.295</ele>
        <time>2012-07-01T07:45:21Z</time>
      </trkpt>
      <trkpt lat="48.37783" lon="2.39693">
        <ele>85.778</ele>
        <time>2012-07-01T07:46:34Z</time>
      </trkpt>
      <trkpt lat="48.37794" lon="2.3971">
        <ele>86.772</ele>
        <time>2012-07-01T07:46:42Z</time>
      </trkpt>
      <trkpt lat="48.37815" lon="2.39788">
        <ele>90.675</ele>
        <time>2012-07-01T07:46:55Z</time>
      </trkpt>
      <trkpt lat="48.37829" lon="2.3988">
        <ele>95.168</ele>
        <time>2012-07-01T07:47:12Z</time>
      </trkpt>
      <trkpt lat="48.37831" lon="2.39939">
        <ele>99.392</ele>
        <time>2012-07-01T07:47:31Z</time>
      </trkpt>
      <trkpt lat="48.37838" lon="2.39999">
        <ele>102.983</ele>
        <time>2012-07-01T07:47:49Z</time>
      </trkpt>
      <trkpt lat="48.3786" lon="2.40066">
        <ele>108.099</ele>
        <time>2012-07-01T07:48:12Z</time>
      </trkpt>
      <trkpt lat="48.37888" lon="2.40239">
        <ele>110.947</ele>
        <time>2012-07-01T07:49:01Z</time>
      </trkpt>
      <trkpt lat="48.37901" lon="2.40277">
        <ele>114.03</ele>
        <time>2012-07-01T07:49:11Z</time>
      </trkpt>
      <trkpt lat="48.37915" lon="2.40295">
        <ele>116.216</ele>
        <time>2012-07-01T07:49:18Z</time>
      </trkpt>
      <trkpt lat="48.37917" lon="2.403">
        <ele>118.074</ele>
        <time>2012-07-01T07:49:31Z</time>
      </trkpt>
      <trkpt lat="48.3793" lon="2.40317">
        <ele>119.906</ele>
        <time>2012-07-01T07:49:52Z</time>
      </trkpt>
      <trkpt lat="48.37963" lon="2.40368">
        <ele>121.51</ele>
        <time>2012-07-01T07:50:11Z</time>
      </trkpt>
      <trkpt lat="48.37998" lon="2.40412">
        <ele>122.195</ele>
        <time>2012-07-01T07:50:28Z</time>
      </trkpt>
      <trkpt lat="48.38045" lon="2.40458">
        <ele>122.861</ele>
        <time>2012-07-01T07:50:47Z</time>
      </trkpt>
      <trkpt lat="48.38081" lon="2.40509">
        <ele>125.048</ele>
        <time>2012-07-01T07:51:02Z</time>
      </trkpt>
      <trkpt lat="48.38112" lon="2.40571">
        <ele>126.495</ele>
        <time>2012-07-01T07:51:20Z</time>
      </trkpt>
      <trkpt lat="48.38157" lon="2.40699">
        <ele>128.391</ele>
        <time>2012-07-01T07:51:45Z</time>
      </trkpt>
      <trkpt lat="48.38199" lon="2.40824">
        <ele>129.953</ele>
        <time>2012-07-01T07:52:10Z</time>
      </trkpt>
      <trkpt lat="48.38239" lon="2.40943">
        <ele>131.502</ele>
        <time>2012-07-01T07:52:33Z</time>
      </trkpt>
      <trkpt lat="48.38262" lon="2.41009">
        <ele>132.254</ele>
        <time>2012-07-01T07:52:46Z</time>
      </trkpt>
      <trkpt lat="48.38273" lon="2.41007">
        <ele>131.985</ele>
        <time>2012-07-01T07:52:50Z</time>
      </trkpt>
      <trkpt lat="48.38328" lon="2.40981">
        <ele>131.983</ele>
        <time>2012-07-01T07:53:06Z</time>
      </trkpt>
      <trkpt lat="48.38408" lon="2.40941">
        <ele>130.541</ele>
        <time>2012-07-01T07:53:25Z</time>
      </trkpt>
      <trkpt lat="48.38503" lon="2.40893">
        <ele>127.974</ele>
        <time>2012-07-01T07:53:46Z</time>
      </trkpt>
      <trkpt lat="48.3857" lon="2.40852">
        <ele>127.903</ele>
        <time>2012-07-01T07:54:03Z</time>
      </trkpt>
      <trkpt lat="48.38663" lon="2.40808">
        <ele>128.606</ele>
        <time>2012-07-01T07:54:29Z</time>
      </trkpt>
      <trkpt lat="48.38728" lon="2.40793">
        <ele>128.479</ele>
        <time>2012-07-01T07:54:48Z</time>
      </trkpt>
      <trkpt lat="48.38797" lon="2.40785">
        <ele>127.312</ele>
        <time>2012-07-01T07:55:09Z</time>
      </trkpt>
      <trkpt lat="48.38879" lon="2.40774">
        <ele>125.345</ele>
        <time>2012-07-01T07:55:29Z</time>
      </trkpt>
      <trkpt lat="48.38948" lon="2.40766">
        <ele>126.529</ele>
        <time>2012-07-01T07:55:47Z</time>
      </trkpt>
      <trkpt lat="48.39065" lon="2.40728">
        <ele>124.948</ele>
        <time>2012-07-01T07:56:17Z</time>
      </trkpt>
      <trkpt lat="48.39088" lon="2.40724">
        <ele>124.944</ele>
        <time>2012-07-01T07:56:22Z</time>
      </trkpt>
      <trkpt lat="48.39106" lon="2.40718">
        <ele>125.17</ele>
        <time>2012-07-01T07:56:30Z</time>
      </trkpt>
      <trkpt lat="48.39119" lon="2.40682">
        <ele>125.222</ele>
        <time>2012-07-01T07:56:39Z</time>
      </trkpt>
      <trkpt lat="48.39364" lon="2.4007">
        <ele>125.976</ele>
        <time>2012-07-01T07:58:53Z</time>
      </trkpt>
      <trkpt lat="48.39358" lon="2.4005">
        <ele>125.976</ele>
        <time>2012-07-01T07:58:56Z</time>
      </trkpt>
      <trkpt lat="48.39353" lon="2.40035">
        <ele>125.976</ele>
        <time>2012-07-01T07:58:58Z</time>
      </trkpt>
      <trkpt lat="48.39355" lon="2.39978">
        <ele>64.468</ele>
        <time>2012-07-01T08:00:02Z</time>
      </trkpt>
      <trkpt lat="48.39357" lon="2.39978">
        <ele>65.396</ele>
        <time>2012-07-01T08:01:13Z</time>
      </trkpt>
      <trkpt lat="48.39321" lon="2.39973">
        <ele>68.078</ele>
        <time>2012-07-01T08:01:35Z</time>
      </trkpt>
      <trkpt lat="48.39236" lon="2.3995">
        <ele>68.45</ele>
        <time>2012-07-01T08:02:15Z</time>
      </trkpt>
      <trkpt lat="48.39234" lon="2.39949">
        <ele>68.391</ele>
        <time>2012-07-01T08:02:17Z</time>
      </trkpt>
      <trkpt lat="48.39229" lon="2.39941">
        <ele>68.3</ele>
        <time>2012-07-01T08:02:24Z</time>
      </trkpt>
      <trkpt lat="48.39242" lon="2.39827">
        <ele>68.793</ele>
        <time>2012-07-01T08:02:42Z</time>
      </trkpt>
      <trkpt lat="48.39233" lon="2.39816">
        <ele>68.569</ele>
        <time>2012-07-01T08:02:47Z</time>
      </trkpt>
      <trkpt lat="48.39208" lon="2.39818">
        <ele>70.693</ele>
        <time>2012-07-01T08:03:07Z</time>
      </trkpt>
      <trkpt lat="48.39183" lon="2.39812">
        <ele>75.033</ele>
        <time>2012-07-01T08:03:28Z</time>
      </trkpt>
      <trkpt lat="48.39167" lon="2.3979">
        <ele>80.203</ele>
        <time>2012-07-01T08:03:47Z</time>
      </trkpt>
      <trkpt lat="48.3916" lon="2.39773">
        <ele>84.738</ele>
        <time>2012-07-01T08:04:04Z</time>
      </trkpt>
      <trkpt lat="48.39159" lon="2.39779">
        <ele>89.09</ele>
        <time>2012-07-01T08:04:26Z</time>
      </trkpt>
      <trkpt lat="48.39158" lon="2.39777">
        <ele>95.381</ele>
        <time>2012-07-01T08:05:21Z</time>
      </trkpt>
      <trkpt lat="48.39159" lon="2.39765">
        <ele>94.134</ele>
        <time>2012-07-01T08:05:26Z</time>
      </trkpt>
      <trkpt lat="48.39174" lon="2.39705">
        <ele>91.939</ele>
        <time>2012-07-01T08:05:45Z</time>
      </trkpt>
      <trkpt lat="48.39174" lon="2.39658">
        <ele>91.968</ele>
        <time>2012-07-01T08:05:57Z</time>
      </trkpt>
      <trkpt lat="48.39151" lon="2.39571">
        <ele>91.258</ele>
        <time>2012-07-01T08:06:18Z</time>
      </trkpt>
      <trkpt lat="48.39167" lon="2.39567">
        <ele>86.427</ele>
        <time>2012-07-01T08:06:29Z</time>
      </trkpt>
      <trkpt lat="48.39172" lon="2.39573">
        <ele>87.501</ele>
        <time>2012-07-01T08:06:36Z</time>
      </trkpt>
      <trkpt lat="48.39197" lon="2.3954">
        <ele>87.183</ele>
        <time>2012-07-01T08:06:58Z</time>
      </trkpt>
      <trkpt lat="48.39197" lon="2.39537">
        <ele>82.432</ele>
        <time>2012-07-01T08:07:21Z</time>
      </trkpt>
      <trkpt lat="48.392" lon="2.39536">
        <ele>73.069</ele>
        <time>2012-07-01T08:09:49Z</time>
      </trkpt>
      <trkpt lat="48.39226" lon="2.39564">
        <ele>72.72</ele>
        <time>2012-07-01T08:10:05Z</time>
      </trkpt>
      <trkpt lat="48.39231" lon="2.39585">
        <ele>73.541</ele>
        <time>2012-07-01T08:10:19Z</time>
      </trkpt>
      <trkpt lat="48.39235" lon="2.39607">
        <ele>71.521</ele>
        <time>2012-07-01T08:10:31Z</time>
      </trkpt>
      <trkpt lat="48.39254" lon="2.39648">
        <ele>71.073</ele>
        <time>2012-07-01T08:10:48Z</time>
      </trkpt>
      <trkpt lat="48.39261" lon="2.39723">
        <ele>69.941</ele>
        <time>2012-07-01T08:11:04Z</time>
      </trkpt>
      <trkpt lat="48.39278" lon="2.39776">
        <ele>68.216</ele>
        <time>2012-07-01T08:11:20Z</time>
      </trkpt>
      <trkpt lat="48.39291" lon="2.39803">
        <ele>67.4</ele>
        <time>2012-07-01T08:11:28Z</time>
      </trkpt>
      <trkpt lat="48.39306" lon="2.39803">
        <ele>68.165</ele>
        <time>2012-07-01T08:11:32Z</time>
      </trkpt>
      <trkpt lat="48.3936" lon="2.39789">
        <ele>69.974</ele>
        <time>2012-07-01T08:11:46Z</time>
      </trkpt>
      <trkpt lat="48.39378" lon="2.39807">
        <ele>69.22</ele>
        <time>2012-07-01T08:11:53Z</time>
      </trkpt>
      <trkpt lat="48.39453" lon="2.39866">
        <ele>70.138</ele>
        <time>2012-07-01T08:12:15Z</time>
      </trkpt>
      <trkpt lat="48.39545" lon="2.39946">
        <ele>69.195</ele>
        <time>2012-07-01T08:12:36Z</time>
      </trkpt>
      <trkpt lat="48.3961" lon="2.39989">
        <ele>69.273</ele>
        <time>2012-07-01T08:12:52Z</time>
      </trkpt>
      <trkpt lat="48.39684" lon="2.40056">
        <ele>68.21</ele>
        <time>2012-07-01T08:13:10Z</time>
      </trkpt>
      <trkpt lat="48.39714" lon="2.40095">
        <ele>68.053</ele>
        <time>2012-07-01T08:13:19Z</time>
      </trkpt>
      <trkpt lat="48.39802" lon="2.4017">
        <ele>67.952</ele>
        <time>2012-07-01T08:13:41Z</time>
      </trkpt>
      <trkpt lat="48.39826" lon="2.40195">
        <ele>68.43</ele>
        <time>2012-07-01T08:13:48Z</time>
      </trkpt>
      <trkpt lat="48.3987" lon="2.4024">
        <ele>69.226</ele>
        <time>2012-07-01T08:14:03Z</time>
      </trkpt>
      <trkpt lat="48.39887" lon="2.40245">
        <ele>68.769</ele>
        <time>2012-07-01T08:14:08Z</time>
      </trkpt>
      <trkpt lat="48.39977" lon="2.40282">
        <ele>66.469</ele>
        <time>2012-07-01T08:14:28Z</time>
      </trkpt>
      <trkpt lat="48.40044" lon="2.40295">
        <ele>65.22</ele>
        <time>2012-07-01T08:14:45Z</time>
      </trkpt>
      <trkpt lat="48.40046" lon="2.40296">
        <ele>65.335</ele>
        <time>2012-07-01T08:14:46Z</time>
      </trkpt>
      <trkpt lat="48.40064" lon="2.40354">
        <ele>64.003</ele>
        <time>2012-07-01T08:14:59Z</time>
      </trkpt>
      <trkpt lat="48.40095" lon="2.40463">
        <ele>63.837</ele>
        <time>2012-07-01T08:15:21Z</time>
      </trkpt>
      <trkpt lat="48.40133" lon="2.40562">
        <ele>65.212</ele>
        <time>2012-07-01T08:15:43Z</time>
      </trkpt>
      <trkpt lat="48.40177" lon="2.40645">
        <ele>65.188</ele>
        <time>2012-07-01T08:16:04Z</time>
      </trkpt>
      <trkpt lat="48.40231" lon="2.40717">
        <ele>66.522</ele>
        <time>2012-07-01T08:16:28Z</time>
      </trkpt>
      <trkpt lat="48.40287" lon="2.40794">
        <ele>68.191</ele>
        <time>2012-07-01T08:16:55Z</time>
      </trkpt>
      <trkpt lat="48.40429" lon="2.40925">
        <ele>70.068</ele>
        <time>2012-07-01T08:17:44Z</time>
      </trkpt>
      <trkpt lat="48.40461" lon="2.40696">
        <ele>70.993</ele>
        <time>2012-07-01T08:18:42Z</time>
      </trkpt>
      <trkpt lat="48.40475" lon="2.40585">
        <ele>70.066</ele>
        <time>2012-07-01T08:19:02Z</time>
      </trkpt>
      <trkpt lat="48.40479" lon="2.40578">
        <ele>71.166</ele>
        <time>2012-07-01T08:19:20Z</time>
      </trkpt>
      <trkpt lat="48.40479" lon="2.4057">
        <ele>77.735</ele>
        <time>2012-07-01T08:19:57Z</time>
      </trkpt>
      <trkpt lat="48.40481" lon="2.40564">
        <ele>79.145</ele>
        <time>2012-07-01T08:20:17Z</time>
      </trkpt>
      <trkpt lat="48.40517" lon="2.4059">
        <ele>77.328</ele>
        <time>2012-07-01T08:20:37Z</time>
      </trkpt>
      <trkpt lat="48.40556" lon="2.40597">
        <ele>78.824</ele>
        <time>2012-07-01T08:20:56Z</time>
      </trkpt>
      <trkpt lat="48.40602" lon="2.40575">
        <ele>80.503</ele>
        <time>2012-07-01T08:21:17Z</time>
      </trkpt>
      <trkpt lat="48.40684" lon="2.4053">
        <ele>82.969</ele>
        <time>2012-07-01T08:21:57Z</time>
      </trkpt>
      <trkpt lat="48.40723" lon="2.40504">
        <ele>84.915</ele>
        <time>2012-07-01T08:22:24Z</time>
      </trkpt>
      <trkpt lat="48.40747" lon="2.40477">
        <ele>92.237</ele>
        <time>2012-07-01T08:22:50Z</time>
      </trkpt>
      <trkpt lat="48.40772" lon="2.40458">
        <ele>93.716</ele>
        <time>2012-07-01T08:23:15Z</time>
      </trkpt>
      <trkpt lat="48.40777" lon="2.40463">
        <ele>95.424</ele>
        <time>2012-07-01T08:23:22Z</time>
      </trkpt>
      <trkpt lat="48.40799" lon="2.40469">
        <ele>101.824</ele>
        <time>2012-07-01T08:23:44Z</time>
      </trkpt>
      <trkpt lat="48.40824" lon="2.4046">
        <ele>107.835</ele>
        <time>2012-07-01T08:24:14Z</time>
      </trkpt>
      <trkpt lat="48.40826" lon="2.40462">
        <ele>107.018</ele>
        <time>2012-07-01T08:24:17Z</time>
      </trkpt>
      <trkpt lat="48.40849" lon="2.40494">
        <ele>110.471</ele>
        <time>2012-07-01T08:24:43Z</time>
      </trkpt>
      <trkpt lat="48.40852" lon="2.40499">
        <ele>111.985</ele>
        <time>2012-07-01T08:25:03Z</time>
      </trkpt>
      <trkpt lat="48.40853" lon="2.40502">
        <ele>117.197</ele>
        <time>2012-07-01T08:25:38Z</time>
      </trkpt>
      <trkpt lat="48.40852" lon="2.40503">
        <ele>114.955</ele>
        <time>2012-07-01T08:26:18Z</time>
      </trkpt>
      <trkpt lat="48.40842" lon="2.40493">
        <ele>115.808</ele>
        <time>2012-07-01T08:26:35Z</time>
      </trkpt>
      <trkpt lat="48.40842" lon="2.40496">
        <ele>112.714</ele>
        <time>2012-07-01T08:26:52Z</time>
      </trkpt>
      <trkpt lat="48.40844" lon="2.40499">
        <ele>122.178</ele>
        <time>2012-07-01T08:27:14Z</time>
      </trkpt>
      <trkpt lat="48.40844" lon="2.40493">
        <ele>125.31</ele>
        <time>2012-07-01T08:28:09Z</time>
      </trkpt>
      <trkpt lat="48.40864" lon="2.40508">
        <ele>122.123</ele>
        <time>2012-07-01T08:28:31Z</time>
      </trkpt>
      <trkpt lat="48.40882" lon="2.40513">
        <ele>123.644</ele>
        <time>2012-07-01T08:28:54Z</time>
      </trkpt>
      <trkpt lat="48.40885" lon="2.40512">
        <ele>143.798</ele>
        <time>2012-07-01T08:30:03Z</time>
      </trkpt>
      <trkpt lat="48.40894" lon="2.40514">
        <ele>132.903</ele>
        <time>2012-07-01T08:30:54Z</time>
      </trkpt>
      <trkpt lat="48.40897" lon="2.40512">
        <ele>132.603</ele>
        <time>2012-07-01T08:31:02Z</time>
      </trkpt>
      <trkpt lat="48.40921" lon="2.405">
        <ele>133.829</ele>
        <time>2012-07-01T08:31:24Z</time>
      </trkpt>
      <trkpt lat="48.40927" lon="2.40506">
        <ele>133.3</ele>
        <time>2012-07-01T08:31:31Z</time>
      </trkpt>
      <trkpt lat="48.40957" lon="2.40511">
        <ele>135.122</ele>
        <time>2012-07-01T08:31:52Z</time>
      </trkpt>
      <trkpt lat="48.40993" lon="2.40485">
        <ele>138.977</ele>
        <time>2012-07-01T08:32:13Z</time>
      </trkpt>
      <trkpt lat="48.4102" lon="2.40449">
        <ele>139.227</ele>
        <time>2012-07-01T08:32:33Z</time>
      </trkpt>
      <trkpt lat="48.41032" lon="2.40421">
        <ele>141.294</ele>
        <time>2012-07-01T08:32:53Z</time>
      </trkpt>
      <trkpt lat="48.41096" lon="2.40375">
        <ele>134.107</ele>
        <time>2012-07-01T08:33:35Z</time>
      </trkpt>
      <trkpt lat="48.41154" lon="2.4038">
        <ele>129.96</ele>
        <time>2012-07-01T08:33:55Z</time>
      </trkpt>
      <trkpt lat="48.41161" lon="2.40368">
        <ele>121.814</ele>
        <time>2012-07-01T08:34:08Z</time>
      </trkpt>
      <trkpt lat="48.41171" lon="2.40324">
        <ele>100.296</ele>
        <time>2012-07-01T08:35:07Z</time>
      </trkpt>
      <trkpt lat="48.41171" lon="2.40293">
        <ele>92.823</ele>
        <time>2012-07-01T08:35:19Z</time>
      </trkpt>
      <trkpt lat="48.41166" lon="2.40254">
        <ele>87.566</ele>
        <time>2012-07-01T08:35:36Z</time>
      </trkpt>
      <trkpt lat="48.41057" lon="2.4">
        <ele>86.575</ele>
        <time>2012-07-01T08:37:03Z</time>
      </trkpt>
      <trkpt lat="48.40916" lon="2.39825">
        <ele>81.096</ele>
        <time>2012-07-01T08:37:46Z</time>
      </trkpt>
      <trkpt lat="48.40912" lon="2.39816">
        <ele>79.324</ele>
        <time>2012-07-01T08:37:49Z</time>
      </trkpt>
      <trkpt lat="48.40925" lon="2.39806">
        <ele>78.033</ele>
        <time>2012-07-01T08:37:56Z</time>
      </trkpt>
      <trkpt lat="48.40994" lon="2.39769">
        <ele>73.705</ele>
        <time>2012-07-01T08:38:17Z</time>
      </trkpt>
      <trkpt lat="48.41074" lon="2.39761">
        <ele>70.242</ele>
        <time>2012-07-01T08:38:38Z</time>
      </trkpt>
      <trkpt lat="48.41161" lon="2.39781">
        <ele>68.391</ele>
        <time>2012-07-01T08:38:59Z</time>
      </trkpt>
      <trkpt lat="48.41239" lon="2.39804">
        <ele>66.657</ele>
        <time>2012-07-01T08:39:16Z</time>
      </trkpt>
      <trkpt lat="48.41349" lon="2.39842">
        <ele>67.285</ele>
        <time>2012-07-01T08:39:40Z</time>
      </trkpt>
      <trkpt lat="48.41428" lon="2.39886">
        <ele>66.717</ele>
        <time>2012-07-01T08:39:59Z</time>
      </trkpt>
      <trkpt lat="48.41515" lon="2.39929">
        <ele>66.373</ele>
        <time>2012-07-01T08:40:20Z</time>
      </trkpt>
      <trkpt lat="48.41789" lon="2.40008">
        <ele>72.568</ele>
        <time>2012-07-01T08:41:41Z</time>
      </trkpt>
      <trkpt lat="48.41804" lon="2.40004">
        <ele>72.346</ele>
        <time>2012-07-01T08:42:06Z</time>
      </trkpt>
      <trkpt lat="48.41787" lon="2.40026">
        <ele>103.142</ele>
        <time>2012-07-01T08:48:20Z</time>
      </trkpt>
      <trkpt lat="48.41787" lon="2.40019">
        <ele>102.671</ele>
        <time>2012-07-01T08:48:25Z</time>
      </trkpt>
      <trkpt lat="48.41797" lon="2.4001">
        <ele>91.916</ele>
        <time>2012-07-01T08:50:18Z</time>
      </trkpt>
      <trkpt lat="48.41828" lon="2.39894">
        <ele>89.968</ele>
        <time>2012-07-01T08:51:00Z</time>
      </trkpt>
      <trkpt lat="48.41849" lon="2.39825">
        <ele>88.794</ele>
        <time>2012-07-01T08:51:21Z</time>
      </trkpt>
      <trkpt lat="48.41865" lon="2.39751">
        <ele>86.77</ele>
        <time>2012-07-01T08:51:44Z</time>
      </trkpt>
      <trkpt lat="48.41893" lon="2.39677">
        <ele>86.272</ele>
        <time>2012-07-01T08:52:07Z</time>
      </trkpt>
      <trkpt lat="48.4193" lon="2.39584">
        <ele>84.351</ele>
        <time>2012-07-01T08:52:28Z</time>
      </trkpt>
      <trkpt lat="48.4193" lon="2.39437">
        <ele>78.939</ele>
        <time>2012-07-01T08:52:44Z</time>
      </trkpt>
      <trkpt lat="48.41928" lon="2.394">
        <ele>77.386</ele>
        <time>2012-07-01T08:52:51Z</time>
      </trkpt>
      <trkpt lat="48.41913" lon="2.39407">
        <ele>75.733</ele>
        <time>2012-07-01T08:52:56Z</time>
      </trkpt>
      <trkpt lat="48.41899" lon="2.39395">
        <ele>74.527</ele>
        <time>2012-07-01T08:53:01Z</time>
      </trkpt>
      <trkpt lat="48.41891" lon="2.39302">
        <ele>70.358</ele>
        <time>2012-07-01T08:53:15Z</time>
      </trkpt>
      <trkpt lat="48.41882" lon="2.39195">
        <ele>67.443</ele>
        <time>2012-07-01T08:53:33Z</time>
      </trkpt>
      <trkpt lat="48.41871" lon="2.39086">
        <ele>66.07</ele>
        <time>2012-07-01T08:53:51Z</time>
      </trkpt>
      <trkpt lat="48.41872" lon="2.39075">
        <ele>65.852</ele>
        <time>2012-07-01T08:53:53Z</time>
      </trkpt>
      <trkpt lat="48.41884" lon="2.39054">
        <ele>66.591</ele>
        <time>2012-07-01T08:54:00Z</time>
      </trkpt>
      <trkpt lat="48.41882" lon="2.39016">
        <ele>66.593</ele>
        <time>2012-07-01T08:54:07Z</time>
      </trkpt>
      <trkpt lat="48.41881" lon="2.38992">
        <ele>66.537</ele>
        <time>2012-07-01T08:54:11Z</time>
      </trkpt>
      <trkpt lat="48.41864" lon="2.38876">
        <ele>64.251</ele>
        <time>2012-07-01T08:54:30Z</time>
      </trkpt>
      <trkpt lat="48.41862" lon="2.38815">
        <ele>64.107</ele>
        <time>2012-07-01T08:54:40Z</time>
      </trkpt>
      <trkpt lat="48.41876" lon="2.38796">
        <ele>63.767</ele>
        <time>2012-07-01T08:54:45Z</time>
      </trkpt>
      <trkpt lat="48.41948" lon="2.38759">
        <ele>64.263</ele>
        <time>2012-07-01T08:55:04Z</time>
      </trkpt>
      <trkpt lat="48.41973" lon="2.38745">
        <ele>64.103</ele>
        <time>2012-07-01T08:55:10Z</time>
      </trkpt>
      <trkpt lat="48.42041" lon="2.38702">
        <ele>63.318</ele>
        <time>2012-07-01T08:55:27Z</time>
      </trkpt>
      <trkpt lat="48.42102" lon="2.38664">
        <ele>63.877</ele>
        <time>2012-07-01T08:55:44Z</time>
      </trkpt>
      <trkpt lat="48.42084" lon="2.38623">
        <ele>61.462</ele>
        <time>2012-07-01T08:55:54Z</time>
      </trkpt>
      <trkpt lat="48.4207" lon="2.38594">
        <ele>62.01</ele>
        <time>2012-07-01T08:56:07Z</time>
      </trkpt>
      <trkpt lat="48.41967" lon="2.38375">
        <ele>62.429</ele>
        <time>2012-07-01T08:57:19Z</time>
      </trkpt>
      <trkpt lat="48.41968" lon="2.38358">
        <ele>62.9</ele>
        <time>2012-07-01T08:57:23Z</time>
      </trkpt>
      <trkpt lat="48.41956" lon="2.38325">
        <ele>63.895</ele>
        <time>2012-07-01T08:57:36Z</time>
      </trkpt>
      <trkpt lat="48.41951" lon="2.38311">
        <ele>64.597</ele>
        <time>2012-07-01T08:57:56Z</time>
      </trkpt>
      <trkpt lat="48.41946" lon="2.3831">
        <ele>64.818</ele>
        <time>2012-07-01T08:58:10Z</time>
      </trkpt>
      <trkpt lat="48.41919" lon="2.38304">
        <ele>63.101</ele>
        <time>2012-07-01T08:58:20Z</time>
      </trkpt>
      <trkpt lat="48.41869" lon="2.3828">
        <ele>61.454</ele>
        <time>2012-07-01T08:58:35Z</time>
      </trkpt>
      <trkpt lat="48.41833" lon="2.38219">
        <ele>61.287</ele>
        <time>2012-07-01T08:58:51Z</time>
      </trkpt>
      <trkpt lat="48.41783" lon="2.38225">
        <ele>60.71</ele>
        <time>2012-07-01T08:59:05Z</time>
      </trkpt>
      <trkpt lat="48.41682" lon="2.38264">
        <ele>59.877</ele>
        <time>2012-07-01T08:59:28Z</time>
      </trkpt>
      <trkpt lat="48.4157" lon="2.38317">
        <ele>62.378</ele>
        <time>2012-07-01T08:59:54Z</time>
      </trkpt>
      <trkpt lat="48.41499" lon="2.38349">
        <ele>61.781</ele>
        <time>2012-07-01T09:00:12Z</time>
      </trkpt>
      <trkpt lat="48.41467" lon="2.38365">
        <ele>62.015</ele>
        <time>2012-07-01T09:00:20Z</time>
      </trkpt>
      <trkpt lat="48.41377" lon="2.38403">
        <ele>63.16</ele>
        <time>2012-07-01T09:00:41Z</time>
      </trkpt>
      <trkpt lat="48.41348" lon="2.38413">
        <ele>62.953</ele>
        <time>2012-07-01T09:00:48Z</time>
      </trkpt>
      <trkpt lat="48.41297" lon="2.38439">
        <ele>62.84</ele>
        <time>2012-07-01T09:01:00Z</time>
      </trkpt>
      <trkpt lat="48.41226" lon="2.38475">
        <ele>61.478</ele>
        <time>2012-07-01T09:01:18Z</time>
      </trkpt>
      <trkpt lat="48.41223" lon="2.38475">
        <ele>61.476</ele>
        <time>2012-07-01T09:01:19Z</time>
      </trkpt>
      <trkpt lat="48.41219" lon="2.38463">
        <ele>61.597</ele>
        <time>2012-07-01T09:01:23Z</time>
      </trkpt>
      <trkpt lat="48.41209" lon="2.38408">
        <ele>64.228</ele>
        <time>2012-07-01T09:01:40Z</time>
      </trkpt>
      <trkpt lat="48.41192" lon="2.38324">
        <ele>66.435</ele>
        <time>2012-07-01T09:01:59Z</time>
      </trkpt>
      <trkpt lat="48.41177" lon="2.38244">
        <ele>67.279</ele>
        <time>2012-07-01T09:02:19Z</time>
      </trkpt>
      <trkpt lat="48.41158" lon="2.38141">
        <ele>68.117</ele>
        <time>2012-07-01T09:02:31Z</time>
      </trkpt>
      <trkpt lat="48.41153" lon="2.38117">
        <ele>67.985</ele>
        <time>2012-07-01T09:02:39Z</time>
      </trkpt>
      <trkpt lat="48.41152" lon="2.38116">
        <ele>66.277</ele>
        <time>2012-07-01T09:02:56Z</time>
      </trkpt>
      <trkpt lat="48.41112" lon="2.38115">
        <ele>65.721</ele>
        <time>2012-07-01T09:03:10Z</time>
      </trkpt>
      <trkpt lat="48.41059" lon="2.38147">
        <ele>66.49</ele>
        <time>2012-07-01T09:03:28Z</time>
      </trkpt>
      <trkpt lat="48.40992" lon="2.382">
        <ele>67.046</ele>
        <time>2012-07-01T09:03:46Z</time>
      </trkpt>
      <trkpt lat="48.40913" lon="2.38228">
        <ele>65.233</ele>
        <time>2012-07-01T09:04:03Z</time>
      </trkpt>
      <trkpt lat="48.40838" lon="2.38234">
        <ele>63.552</ele>
        <time>2012-07-01T09:04:20Z</time>
      </trkpt>
      <trkpt lat="48.40782" lon="2.38223">
        <ele>63.697</ele>
        <time>2012-07-01T09:04:35Z</time>
      </trkpt>
      <trkpt lat="48.40714" lon="2.38208">
        <ele>63.751</ele>
        <time>2012-07-01T09:04:51Z</time>
      </trkpt>
      <trkpt lat="48.40664" lon="2.38216">
        <ele>62.962</ele>
        <time>2012-07-01T09:05:02Z</time>
      </trkpt>
      <trkpt lat="48.40648" lon="2.38216">
        <ele>62.597</ele>
        <time>2012-07-01T09:05:06Z</time>
      </trkpt>
      <trkpt lat="48.40644" lon="2.38244">
        <ele>62.84</ele>
        <time>2012-07-01T09:05:13Z</time>
      </trkpt>
      <trkpt lat="48.40646" lon="2.38257">
        <ele>63.439</ele>
        <time>2012-07-01T09:05:15Z</time>
      </trkpt>
      <trkpt lat="48.40651" lon="2.3828">
        <ele>63.263</ele>
        <time>2012-07-01T09:05:19Z</time>
      </trkpt>
      <trkpt lat="48.40643" lon="2.38284">
        <ele>64.25</ele>
        <time>2012-07-01T09:05:26Z</time>
      </trkpt>
      <trkpt lat="48.40605" lon="2.38285">
        <ele>65.004</ele>
        <time>2012-07-01T09:05:40Z</time>
      </trkpt>
      <trkpt lat="48.40539" lon="2.38284">
        <ele>64.742</ele>
        <time>2012-07-01T09:05:57Z</time>
      </trkpt>
      <trkpt lat="48.40521" lon="2.38282">
        <ele>63.922</ele>
        <time>2012-07-01T09:06:01Z</time>
      </trkpt>
      <trkpt lat="48.40498" lon="2.38271">
        <ele>63.158</ele>
        <time>2012-07-01T09:06:06Z</time>
      </trkpt>
      <trkpt lat="48.40493" lon="2.38238">
        <ele>62.895</ele>
        <time>2012-07-01T09:06:12Z</time>
      </trkpt>
      <trkpt lat="48.40505" lon="2.38156">
        <ele>63.194</ele>
        <time>2012-07-01T09:06:27Z</time>
      </trkpt>
      <trkpt lat="48.40493" lon="2.38143">
        <ele>62.872</ele>
        <time>2012-07-01T09:06:31Z</time>
      </trkpt>
      <trkpt lat="48.40388" lon="2.38117">
        <ele>64.079</ele>
        <time>2012-07-01T09:06:54Z</time>
      </trkpt>
      <trkpt lat="48.40343" lon="2.38119">
        <ele>65.654</ele>
        <time>2012-07-01T09:07:03Z</time>
      </trkpt>
      <trkpt lat="48.40296" lon="2.38125">
        <ele>66.363</ele>
        <time>2012-07-01T09:07:12Z</time>
      </trkpt>
      <trkpt lat="48.40284" lon="2.38107">
        <ele>66.159</ele>
        <time>2012-07-01T09:07:16Z</time>
      </trkpt>
      <trkpt lat="48.40285" lon="2.3804">
        <ele>67.117</ele>
        <time>2012-07-01T09:07:26Z</time>
      </trkpt>
      <trkpt lat="48.40298" lon="2.37943">
        <ele>67.701</ele>
        <time>2012-07-01T09:07:42Z</time>
      </trkpt>
      <trkpt lat="48.40292" lon="2.37926">
        <ele>68.149</ele>
        <time>2012-07-01T09:07:46Z</time>
      </trkpt>
      <trkpt lat="48.40255" lon="2.37867">
        <ele>68.669</ele>
        <time>2012-07-01T09:08:01Z</time>
      </trkpt>
      <trkpt lat="48.40262" lon="2.37827">
        <ele>69.584</ele>
        <time>2012-07-01T09:08:11Z</time>
      </trkpt>
      <trkpt lat="48.40307" lon="2.37751">
        <ele>69.807</ele>
        <time>2012-07-01T09:08:30Z</time>
      </trkpt>
      <trkpt lat="48.40321" lon="2.37731">
        <ele>69.183</ele>
        <time>2012-07-01T09:08:36Z</time>
      </trkpt>
      <trkpt lat="48.4034" lon="2.37715">
        <ele>70.68</ele>
        <time>2012-07-01T09:08:41Z</time>
      </trkpt>
      <trkpt lat="48.40346" lon="2.37702">
        <ele>70.927</ele>
        <time>2012-07-01T09:08:44Z</time>
      </trkpt>
      <trkpt lat="48.40365" lon="2.37616">
        <ele>73.241</ele>
        <time>2012-07-01T09:09:03Z</time>
      </trkpt>
      <trkpt lat="48.40373" lon="2.37514">
        <ele>74.108</ele>
        <time>2012-07-01T09:09:21Z</time>
      </trkpt>
      <trkpt lat="48.40358" lon="2.37418">
        <ele>73.893</ele>
        <time>2012-07-01T09:09:40Z</time>
      </trkpt>
      <trkpt lat="48.40323" lon="2.37413">
        <ele>75.475</ele>
        <time>2012-07-01T09:09:51Z</time>
      </trkpt>
      <trkpt lat="48.40275" lon="2.3741">
        <ele>79.932</ele>
        <time>2012-07-01T09:10:08Z</time>
      </trkpt>
      <trkpt lat="48.40267" lon="2.37403">
        <ele>84.525</ele>
        <time>2012-07-01T09:10:24Z</time>
      </trkpt>
      <trkpt lat="48.40111" lon="2.37377">
        <ele>102.237</ele>
        <time>2012-07-01T09:12:02Z</time>
      </trkpt>
      <trkpt lat="48.40102" lon="2.37388">
        <ele>101.259</ele>
        <time>2012-07-01T09:13:16Z</time>
      </trkpt>
      <trkpt lat="48.40077" lon="2.3744">
        <ele>103.089</ele>
        <time>2012-07-01T09:13:31Z</time>
      </trkpt>
      <trkpt lat="48.40008" lon="2.37526">
        <ele>101.029</ele>
        <time>2012-07-01T09:13:47Z</time>
      </trkpt>
      <trkpt lat="48.39968" lon="2.37559">
        <ele>99.773</ele>
        <time>2012-07-01T09:13:54Z</time>
      </trkpt>
      <trkpt lat="48.3989" lon="2.37562">
        <ele>94.523</ele>
        <time>2012-07-01T09:14:08Z</time>
      </trkpt>
      <trkpt lat="48.39846" lon="2.37564">
        <ele>92.26</ele>
        <time>2012-07-01T09:14:16Z</time>
      </trkpt>
      <trkpt lat="48.39786" lon="2.37582">
        <ele>88.196</ele>
        <time>2012-07-01T09:14:29Z</time>
      </trkpt>
      <trkpt lat="48.397" lon="2.37587">
        <ele>82.532</ele>
        <time>2012-07-01T09:14:46Z</time>
      </trkpt>
      <trkpt lat="48.39679" lon="2.37584">
        <ele>81.067</ele>
        <time>2012-07-01T09:14:51Z</time>
      </trkpt>
      <trkpt lat="48.39673" lon="2.37577">
        <ele>80.655</ele>
        <time>2012-07-01T09:14:54Z</time>
      </trkpt>
      <trkpt lat="48.39688" lon="2.37522">
        <ele>80.856</ele>
        <time>2012-07-01T09:15:11Z</time>
      </trkpt>
      <trkpt lat="48.39713" lon="2.37444">
        <ele>82.492</ele>
        <time>2012-07-01T09:15:28Z</time>
      </trkpt>
      <trkpt lat="48.39732" lon="2.37384">
        <ele>85.05</ele>
        <time>2012-07-01T09:15:44Z</time>
      </trkpt>
      <trkpt lat="48.39748" lon="2.37311">
        <ele>86.887</ele>
        <time>2012-07-01T09:16:03Z</time>
      </trkpt>
      <trkpt lat="48.39759" lon="2.37248">
        <ele>90.6</ele>
        <time>2012-07-01T09:16:24Z</time>
      </trkpt>
      <trkpt lat="48.39728" lon="2.37225">
        <ele>95.213</ele>
        <time>2012-07-01T09:16:40Z</time>
      </trkpt>
      <trkpt lat="48.39665" lon="2.37215">
        <ele>96.688</ele>
        <time>2012-07-01T09:17:04Z</time>
      </trkpt>
      <trkpt lat="48.39626" lon="2.37201">
        <ele>101.924</ele>
        <time>2012-07-01T09:17:23Z</time>
      </trkpt>
      <trkpt lat="48.39626" lon="2.37201">
        <ele>108.003</ele>
        <time>2012-07-01T09:17:38Z</time>
      </trkpt>
      <trkpt lat="48.39622" lon="2.37195">
        <ele>109.292</ele>
        <time>2012-07-01T09:17:43Z</time>
      </trkpt>
      <trkpt lat="48.39611" lon="2.3719">
        <ele>113.136</ele>
        <time>2012-07-01T09:18:00Z</time>
      </trkpt>
      <trkpt lat="48.39614" lon="2.37195">
        <ele>114.869</ele>
        <time>2012-07-01T09:18:12Z</time>
      </trkpt>
      <trkpt lat="48.39642" lon="2.37203">
        <ele>127.988</ele>
        <time>2012-07-01T09:20:09Z</time>
      </trkpt>
      <trkpt lat="48.39641" lon="2.37193">
        <ele>123.633</ele>
        <time>2012-07-01T09:20:31Z</time>
      </trkpt>
      <trkpt lat="48.39641" lon="2.3719">
        <ele>123.473</ele>
        <time>2012-07-01T09:20:33Z</time>
      </trkpt>
      <trkpt lat="48.39646" lon="2.37146">
        <ele>123.387</ele>
        <time>2012-07-01T09:20:54Z</time>
      </trkpt>
      <trkpt lat="48.39648" lon="2.37145">
        <ele>123.589</ele>
        <time>2012-07-01T09:20:56Z</time>
      </trkpt>
      <trkpt lat="48.39658" lon="2.37129">
        <ele>122.4</ele>
        <time>2012-07-01T09:21:11Z</time>
      </trkpt>
      <trkpt lat="48.39675" lon="2.37097">
        <ele>123.206</ele>
        <time>2012-07-01T09:21:25Z</time>
      </trkpt>
      <trkpt lat="48.39707" lon="2.37034">
        <ele>123.289</ele>
        <time>2012-07-01T09:21:43Z</time>
      </trkpt>
      <trkpt lat="48.39706" lon="2.37033">
        <ele>123.167</ele>
        <time>2012-07-01T09:21:55Z</time>
      </trkpt>
      <trkpt lat="48.397" lon="2.37015">
        <ele>124.092</ele>
        <time>2012-07-01T09:22:09Z</time>
      </trkpt>
      <trkpt lat="48.39691" lon="2.37005">
        <ele>119.485</ele>
        <time>2012-07-01T09:22:50Z</time>
      </trkpt>
      <trkpt lat="48.39703" lon="2.37012">
        <ele>118.806</ele>
        <time>2012-07-01T09:23:00Z</time>
      </trkpt>
      <trkpt lat="48.39701" lon="2.37008">
        <ele>118.583</ele>
        <time>2012-07-01T09:23:17Z</time>
      </trkpt>
      <trkpt lat="48.39695" lon="2.37004">
        <ele>121.227</ele>
        <time>2012-07-01T09:23:24Z</time>
      </trkpt>
      <trkpt lat="48.39663" lon="2.36985">
        <ele>120.48</ele>
        <time>2012-07-01T09:23:43Z</time>
      </trkpt>
      <trkpt lat="48.39652" lon="2.36974">
        <ele>120.484</ele>
        <time>2012-07-01T09:23:53Z</time>
      </trkpt>
      <trkpt lat="48.39638" lon="2.36978">
        <ele>120.433</ele>
        <time>2012-07-01T09:24:09Z</time>
      </trkpt>
      <trkpt lat="48.3961" lon="2.36976">
        <ele>120.777</ele>
        <time>2012-07-01T09:24:27Z</time>
      </trkpt>
      <trkpt lat="48.39553" lon="2.36999">
        <ele>126.026</ele>
        <time>2012-07-01T09:24:48Z</time>
      </trkpt>
      <trkpt lat="48.39534" lon="2.37012">
        <ele>128.249</ele>
        <time>2012-07-01T09:24:57Z</time>
      </trkpt>
      <trkpt lat="48.39537" lon="2.37042">
        <ele>128.085</ele>
        <time>2012-07-01T09:25:04Z</time>
      </trkpt>
      <trkpt lat="48.39522" lon="2.37062">
        <ele>127.929</ele>
        <time>2012-07-01T09:25:11Z</time>
      </trkpt>
      <trkpt lat="48.39498" lon="2.37045">
        <ele>128.058</ele>
        <time>2012-07-01T09:25:20Z</time>
      </trkpt>
      <trkpt lat="48.39487" lon="2.37039">
        <ele>126.446</ele>
        <time>2012-07-01T09:25:24Z</time>
      </trkpt>
      <trkpt lat="48.3946" lon="2.37085">
        <ele>120.283</ele>
        <time>2012-07-01T09:25:37Z</time>
      </trkpt>
      <trkpt lat="48.39453" lon="2.37106">
        <ele>118.125</ele>
        <time>2012-07-01T09:25:49Z</time>
      </trkpt>
      <trkpt lat="48.39454" lon="2.37107">
        <ele>117.896</ele>
        <time>2012-07-01T09:25:50Z</time>
      </trkpt>
      <trkpt lat="48.39463" lon="2.37118">
        <ele>115.404</ele>
        <time>2012-07-01T09:26:11Z</time>
      </trkpt>
      <trkpt lat="48.39466" lon="2.37113">
        <ele>111.998</ele>
        <time>2012-07-01T09:26:30Z</time>
      </trkpt>
      <trkpt lat="48.39467" lon="2.37112">
        <ele>112.689</ele>
        <time>2012-07-01T09:27:18Z</time>
      </trkpt>
      <trkpt lat="48.39471" lon="2.37107">
        <ele>111.644</ele>
        <time>2012-07-01T09:29:46Z</time>
      </trkpt>
      <trkpt lat="48.39471" lon="2.37107">
        <ele>111.196</ele>
        <time>2012-07-01T09:29:47Z</time>
      </trkpt>
      <trkpt lat="48.3947" lon="2.37132">
        <ele>109.352</ele>
        <time>2012-07-01T09:29:56Z</time>
      </trkpt>
      <trkpt lat="48.39469" lon="2.37226">
        <ele>109.609</ele>
        <time>2012-07-01T09:30:12Z</time>
      </trkpt>
      <trkpt lat="48.39456" lon="2.37268">
        <ele>106.697</ele>
        <time>2012-07-01T09:30:19Z</time>
      </trkpt>
      <trkpt lat="48.39431" lon="2.37308">
        <ele>104.216</ele>
        <time>2012-07-01T09:30:26Z</time>
      </trkpt>
      <trkpt lat="48.39402" lon="2.37355">
        <ele>97.778</ele>
        <time>2012-07-01T09:30:37Z</time>
      </trkpt>
      <trkpt lat="48.39391" lon="2.37368">
        <ele>93.169</ele>
        <time>2012-07-01T09:30:49Z</time>
      </trkpt>
      <trkpt lat="48.39389" lon="2.37367">
        <ele>91.841</ele>
        <time>2012-07-01T09:30:57Z</time>
      </trkpt>
      <trkpt lat="48.3937" lon="2.37354">
        <ele>89.124</ele>
        <time>2012-07-01T09:31:08Z</time>
      </trkpt>
      <trkpt lat="48.39359" lon="2.37311">
        <ele>86.86</ele>
        <time>2012-07-01T09:31:19Z</time>
      </trkpt>
      <trkpt lat="48.39348" lon="2.37277">
        <ele>86.551</ele>
        <time>2012-07-01T09:31:26Z</time>
      </trkpt>
      <trkpt lat="48.39329" lon="2.37258">
        <ele>85.912</ele>
        <time>2012-07-01T09:31:32Z</time>
      </trkpt>
      <trkpt lat="48.3925" lon="2.37231">
        <ele>81.253</ele>
        <time>2012-07-01T09:31:49Z</time>
      </trkpt>
      <trkpt lat="48.39206" lon="2.37212">
        <ele>80.208</ele>
        <time>2012-07-01T09:31:58Z</time>
      </trkpt>
      <trkpt lat="48.39176" lon="2.37264">
        <ele>77.875</ele>
        <time>2012-07-01T09:32:09Z</time>
      </trkpt>
      <trkpt lat="48.39155" lon="2.37329">
        <ele>76.389</ele>
        <time>2012-07-01T09:32:18Z</time>
      </trkpt>
      <trkpt lat="48.39154" lon="2.37347">
        <ele>76.232</ele>
        <time>2012-07-01T09:32:20Z</time>
      </trkpt>
      <trkpt lat="48.39142" lon="2.37366">
        <ele>75.995</ele>
        <time>2012-07-01T09:32:23Z</time>
      </trkpt>
      <trkpt lat="48.39107" lon="2.37397">
        <ele>74.279</ele>
        <time>2012-07-01T09:32:33Z</time>
      </trkpt>
      <trkpt lat="48.39049" lon="2.37413">
        <ele>71.297</ele>
        <time>2012-07-01T09:32:49Z</time>
      </trkpt>
      <trkpt lat="48.39" lon="2.37412">
        <ele>72.395</ele>
        <time>2012-07-01T09:33:04Z</time>
      </trkpt>
      <trkpt lat="48.38984" lon="2.37416">
        <ele>73.798</ele>
        <time>2012-07-01T09:33:11Z</time>
      </trkpt>
      <trkpt lat="48.38995" lon="2.37467">
        <ele>73.545</ele>
        <time>2012-07-01T09:33:26Z</time>
      </trkpt>
      <trkpt lat="48.38995" lon="2.37472">
        <ele>73.99</ele>
        <time>2012-07-01T09:33:28Z</time>
      </trkpt>
      <trkpt lat="48.38976" lon="2.37467">
        <ele>74.939</ele>
        <time>2012-07-01T09:33:34Z</time>
      </trkpt>
      <trkpt lat="48.38945" lon="2.37457">
        <ele>80.414</ele>
        <time>2012-07-01T09:33:49Z</time>
      </trkpt>
      <trkpt lat="48.38905" lon="2.37454">
        <ele>86.342</ele>
        <time>2012-07-01T09:34:08Z</time>
      </trkpt>
      <trkpt lat="48.38873" lon="2.37465">
        <ele>90.435</ele>
        <time>2012-07-01T09:34:24Z</time>
      </trkpt>
      <trkpt lat="48.3885" lon="2.37492">
        <ele>93.496</ele>
        <time>2012-07-01T09:34:38Z</time>
      </trkpt>
      <trkpt lat="48.38844" lon="2.37498">
        <ele>94.54</ele>
        <time>2012-07-01T09:34:42Z</time>
      </trkpt>
      <trkpt lat="48.38822" lon="2.37547">
        <ele>93.661</ele>
        <time>2012-07-01T09:35:00Z</time>
      </trkpt>
      <trkpt lat="48.38786" lon="2.37604">
        <ele>93.48</ele>
        <time>2012-07-01T09:35:19Z</time>
      </trkpt>
      <trkpt lat="48.38735" lon="2.37629">
        <ele>96.278</ele>
        <time>2012-07-01T09:35:33Z</time>
      </trkpt>
      <trkpt lat="48.38732" lon="2.37619">
        <ele>91.91</ele>
        <time>2012-07-01T09:35:45Z</time>
      </trkpt>
      <trkpt lat="48.38734" lon="2.37609">
        <ele>90.064</ele>
        <time>2012-07-01T09:36:32Z</time>
      </trkpt>
      <trkpt lat="48.38739" lon="2.37567">
        <ele>88.898</ele>
        <time>2012-07-01T09:37:03Z</time>
      </trkpt>
      <trkpt lat="48.3873" lon="2.37566">
        <ele>92.531</ele>
        <time>2012-07-01T09:37:14Z</time>
      </trkpt>
      <trkpt lat="48.38671" lon="2.37552">
        <ele>95.605</ele>
        <time>2012-07-01T09:37:39Z</time>
      </trkpt>
      <trkpt lat="48.38632" lon="2.37527">
        <ele>95.112</ele>
        <time>2012-07-01T09:37:56Z</time>
      </trkpt>
      <trkpt lat="48.38634" lon="2.37475">
        <ele>99.317</ele>
        <time>2012-07-01T09:38:23Z</time>
      </trkpt>
      <trkpt lat="48.38627" lon="2.37441">
        <ele>93.401</ele>
        <time>2012-07-01T09:38:45Z</time>
      </trkpt>
      <trkpt lat="48.38616" lon="2.37428">
        <ele>93.169</ele>
        <time>2012-07-01T09:39:26Z</time>
      </trkpt>
      <trkpt lat="48.38509" lon="2.37361">
        <ele>94.3</ele>
        <time>2012-07-01T09:40:15Z</time>
      </trkpt>
      <trkpt lat="48.38372" lon="2.37216">
        <ele>96.78</ele>
        <time>2012-07-01T09:41:04Z</time>
      </trkpt>
      <trkpt lat="48.38261" lon="2.37142">
        <ele>96.708</ele>
        <time>2012-07-01T09:41:25Z</time>
      </trkpt>
      <trkpt lat="48.38247" lon="2.37145">
        <ele>96.297</ele>
        <time>2012-07-01T09:41:28Z</time>
      </trkpt>
      <trkpt lat="48.38227" lon="2.3714">
        <ele>97.536</ele>
        <time>2012-07-01T09:41:36Z</time>
      </trkpt>
      <trkpt lat="48.38196" lon="2.37135">
        <ele>97.746</ele>
        <time>2012-07-01T09:41:42Z</time>
      </trkpt>
      <trkpt lat="48.38181" lon="2.37134">
        <ele>95.955</ele>
        <time>2012-07-01T09:41:46Z</time>
      </trkpt>
      <trkpt lat="48.38178" lon="2.37142">
        <ele>90.627</ele>
        <time>2012-07-01T09:41:56Z</time>
      </trkpt>
      <trkpt lat="48.38178" lon="2.3714">
        <ele>89.538</ele>
        <time>2012-07-01T09:41:59Z</time>
      </trkpt>
      <trkpt lat="48.38174" lon="2.37129">
        <ele>83.703</ele>
        <time>2012-07-01T09:42:19Z</time>
      </trkpt>
      <trkpt lat="48.38168" lon="2.37122">
        <ele>75.81</ele>
        <time>2012-07-01T09:44:01Z</time>
      </trkpt>
      <trkpt lat="48.38167" lon="2.3712">
        <ele>75.201</ele>
        <time>2012-07-01T09:44:07Z</time>
      </trkpt>
      <trkpt lat="48.38173" lon="2.37191">
        <ele>74.982</ele>
        <time>2012-07-01T09:44:23Z</time>
      </trkpt>
      <trkpt lat="48.38185" lon="2.37285">
        <ele>74.622</ele>
        <time>2012-07-01T09:44:40Z</time>
      </trkpt>
      <trkpt lat="48.38214" lon="2.3736">
        <ele>71.432</ele>
        <time>2012-07-01T09:44:53Z</time>
      </trkpt>
      <trkpt lat="48.38217" lon="2.37373">
        <ele>70.876</ele>
        <time>2012-07-01T09:44:55Z</time>
      </trkpt>
      <trkpt lat="48.3822" lon="2.3748">
        <ele>65.746</ele>
        <time>2012-07-01T09:45:09Z</time>
      </trkpt>
      <trkpt lat="48.3822" lon="2.3756">
        <ele>63.988</ele>
        <time>2012-07-01T09:45:22Z</time>
      </trkpt>
      <trkpt lat="48.38221" lon="2.37585">
        <ele>63.613</ele>
        <time>2012-07-01T09:45:26Z</time>
      </trkpt>
      <trkpt lat="48.38222" lon="2.37667">
        <ele>64.9</ele>
        <time>2012-07-01T09:45:41Z</time>
      </trkpt>
      <trkpt lat="48.38221" lon="2.37674">
        <ele>65.229</ele>
        <time>2012-07-01T09:45:44Z</time>
      </trkpt>
      <trkpt lat="48.38186" lon="2.37676">
        <ele>66.085</ele>
        <time>2012-07-01T09:45:52Z</time>
      </trkpt>
      <trkpt lat="48.38141" lon="2.3768">
        <ele>66.458</ele>
        <time>2012-07-01T09:46:05Z</time>
      </trkpt>
      <trkpt lat="48.38133" lon="2.37699">
        <ele>66.31</ele>
        <time>2012-07-01T09:46:11Z</time>
      </trkpt>
      <trkpt lat="48.3815" lon="2.37795">
        <ele>65.643</ele>
        <time>2012-07-01T09:46:27Z</time>
      </trkpt>
      <trkpt lat="48.38196" lon="2.37827">
        <ele>65.172</ele>
        <time>2012-07-01T09:46:40Z</time>
      </trkpt>
      <trkpt lat="48.38236" lon="2.37842">
        <ele>64.516</ele>
        <time>2012-07-01T09:46:56Z</time>
      </trkpt>
      <trkpt lat="48.38268" lon="2.37845">
        <ele>64.047</ele>
        <time>2012-07-01T09:47:10Z</time>
      </trkpt>
      <trkpt lat="48.38273" lon="2.37843">
        <ele>64.629</ele>
        <time>2012-07-01T09:47:12Z</time>
      </trkpt>
      <trkpt lat="48.38276" lon="2.37815">
        <ele>64.984</ele>
        <time>2012-07-01T09:47:21Z</time>
      </trkpt>
      <trkpt lat="48.38302" lon="2.37809">
        <ele>66.609</ele>
        <time>2012-07-01T09:47:36Z</time>
      </trkpt>
      <trkpt lat="48.38305" lon="2.37806">
        <ele>66.414</ele>
        <time>2012-07-01T09:47:38Z</time>
      </trkpt>
      <trkpt lat="48.38309" lon="2.3781">
        <ele>66.061</ele>
        <time>2012-07-01T09:47:44Z</time>
      </trkpt>
    </trkseg>
  </trk>
</gpx>